No particular awareness of the weather is required.    There are no Weather-warnings


Meteo18 Weather Cam more information Meteo18 Weather Cam


Thunder radar more information blitzortung!


Rain radar more information rain snow radar


Visit our other weather sites:

Template documentation
and downloads

And another site



Weather Underground History page Text

Daily Summary for March 25, 2017 Units:  Both    English   Metric
« Previous Day
Next Day »
Daily Weekly Monthly Yearly Custom
  High: Low: Average:
Temperature: TemperatureC °F /  -17.8 °C 6.4 °F /  -14.2 °C 11.1 °F /  -11.6 °C
Dew Point: DewpointC °F /  -17.8 °C 5.2 °F /  -14.9 °C 7.4 °F /  -13.7 °C
Humidity: Humidity % 63 % 78 %
Wind Speed: WindSpeedKMH mph /  0 km/h - 8.4 mph /  13.5 km/h
Wind Gust: WindSpeedGustKMH mph /  0 km/h - -
Wind:- - East
Pressure: PressurehPa in /  0 hPa 1016.1 in /  34405.1 hPa -
Precipitation: 0.0 in /  0 mm    
Historical Graphs
 
 
Tabular Data for March 25, 2017
Time Temperature Dew Point Pressure Wind Wind Speed Wind Gust Humidity Rainfall Rate (Hourly)
TemperatureC °F /  -17.8 °C DewpointC °F /  -17.8 °C PressurehPa in /  0 hPa Calm     Humidity % HourlyPrecipMM in /  0 mm
00:02 9.3 °F /  -12.6 °C 7.4 °F /  -13.7 °C 1022.6 in /  34625.2 hPa NNE 6.4 mph /  10.3 km/h 19.3 mph /  31.1 km/h 88 % 0.0 in /  0 mm
00:07 9.2 °F /  -12.7 °C 7.3 °F /  -13.7 °C 1022.6 in /  34625.2 hPa North 19.3 mph /  31.1 km/h 19.3 mph /  31.1 km/h 88 % 0.0 in /  0 mm
00:12 9.2 °F /  -12.7 °C 7.3 °F /  -13.7 °C 1022.2 in /  34611.7 hPa NE 1.6 mph /  2.6 km/h 19.3 mph /  31.1 km/h 88 % 0.0 in /  0 mm
00:17 9.2 °F /  -12.7 °C 7.3 °F /  -13.7 °C 1022.2 in /  34611.7 hPa NE 16.1 mph /  25.9 km/h 20.9 mph /  33.6 km/h 88 % 0.0 in /  0 mm
00:22 9.2 °F /  -12.7 °C 7.3 °F /  -13.7 °C 1022.2 in /  34611.7 hPa NNW 6.4 mph /  10.3 km/h 22.5 mph /  36.2 km/h 88 % 0.0 in /  0 mm
00:32 9.0 °F /  -12.8 °C 7.1 °F /  -13.8 °C 1022.2 in /  34611.7 hPa NE 12.9 mph /  20.8 km/h 22.5 mph /  36.2 km/h 88 % 0.0 in /  0 mm
00:37 8.9 °F /  -12.8 °C 7.0 °F /  -13.9 °C 1022.2 in /  34611.7 hPa NNE 4.8 mph /  7.7 km/h 22.5 mph /  36.2 km/h 88 % 0.0 in /  0 mm
00:42 8.9 °F /  -12.8 °C 7.0 °F /  -13.9 °C 1022.2 in /  34611.7 hPa North 14.5 mph /  23.3 km/h 22.5 mph /  36.2 km/h 88 % 0.0 in /  0 mm
00:52 8.9 °F /  -12.8 °C 7.0 °F /  -13.9 °C 1022.2 in /  34611.7 hPa North 8.0 mph /  12.9 km/h 22.5 mph /  36.2 km/h 88 % 0.0 in /  0 mm
00:57 8.8 °F /  -12.9 °C 6.9 °F /  -13.9 °C 1022.2 in /  34611.7 hPa NNE 6.4 mph /  10.3 km/h 25.7 mph /  41.4 km/h 88 % 0.0 in /  0 mm
01:02 8.7 °F /  -12.9 °C 6.8 °F /  -14 °C 1022.2 in /  34611.7 hPa NNE 8.0 mph /  12.9 km/h 25.7 mph /  41.4 km/h 88 % 0.0 in /  0 mm
01:12 8.7 °F /  -12.9 °C 6.8 °F /  -14 °C 1022.2 in /  34611.7 hPa North 6.4 mph /  10.3 km/h 25.7 mph /  41.4 km/h 88 % 0.0 in /  0 mm
01:17 8.7 °F /  -12.9 °C 6.8 °F /  -14 °C 1022.2 in /  34611.7 hPa NE 4.8 mph /  7.7 km/h 24.1 mph /  38.8 km/h 88 % 0.0 in /  0 mm
01:22 8.6 °F /  -13 °C 6.7 °F /  -14.1 °C 1022.2 in /  34611.7 hPa NW 8.0 mph /  12.9 km/h 24.1 mph /  38.8 km/h 88 % 0.0 in /  0 mm
01:27 8.6 °F /  -13 °C 6.7 °F /  -14.1 °C 1022.2 in /  34611.7 hPa NNE 12.9 mph /  20.8 km/h 24.1 mph /  38.8 km/h 88 % 0.0 in /  0 mm
01:32 8.6 °F /  -13 °C 6.7 °F /  -14.1 °C 1022.2 in /  34611.7 hPa NNE 12.9 mph /  20.8 km/h 24.1 mph /  38.8 km/h 88 % 0.0 in /  0 mm
01:37 8.6 °F /  -13 °C 6.7 °F /  -14.1 °C 1021.9 in /  34601.5 hPa North 8.0 mph /  12.9 km/h 22.5 mph /  36.2 km/h 88 % 0.0 in /  0 mm
01:42 8.5 °F /  -13.1 °C 6.8 °F /  -14 °C 1021.9 in /  34601.5 hPa NNE 19.3 mph /  31.1 km/h 22.5 mph /  36.2 km/h 89 % 0.0 in /  0 mm
01:47 8.5 °F /  -13.1 °C 6.8 °F /  -14 °C 1021.9 in /  34601.5 hPa NW 12.9 mph /  20.8 km/h 22.5 mph /  36.2 km/h 89 % 0.0 in /  0 mm
01:52 8.5 °F /  -13.1 °C 6.8 °F /  -14 °C 1021.9 in /  34601.5 hPa NE 9.7 mph /  15.6 km/h 22.5 mph /  36.2 km/h 89 % 0.0 in /  0 mm
01:57 8.4 °F /  -13.1 °C 6.7 °F /  -14.1 °C 1021.9 in /  34601.5 hPa NNE 6.4 mph /  10.3 km/h 25.7 mph /  41.4 km/h 89 % 0.0 in /  0 mm
02:02 8.5 °F /  -13.1 °C 6.6 °F /  -14.1 °C 1021.6 in /  34591.4 hPa NNE 17.7 mph /  28.5 km/h 25.7 mph /  41.4 km/h 88 % 0.0 in /  0 mm
02:12 8.5 °F /  -13.1 °C 6.6 °F /  -14.1 °C 1021.6 in /  34591.4 hPa NNE 14.5 mph /  23.3 km/h 25.7 mph /  41.4 km/h 88 % 0.0 in /  0 mm
02:17 8.4 °F /  -13.1 °C 6.7 °F /  -14.1 °C 1021.6 in /  34591.4 hPa NNW 4.8 mph /  7.7 km/h 30.6 mph /  49.2 km/h 89 % 0.0 in /  0 mm
02:22 8.3 °F /  -13.2 °C 6.6 °F /  -14.1 °C 1021.6 in /  34591.4 hPa North 3.2 mph /  5.1 km/h 30.6 mph /  49.2 km/h 89 % 0.0 in /  0 mm
02:27 8.2 °F /  -13.2 °C 6.5 °F /  -14.2 °C 1021.6 in /  34591.4 hPa North 6.4 mph /  10.3 km/h 19.3 mph /  31.1 km/h 89 % 0.0 in /  0 mm
02:32 8.2 °F /  -13.2 °C 6.7 °F /  -14.1 °C 1021.2 in /  34577.8 hPa NE 8.0 mph /  12.9 km/h 19.3 mph /  31.1 km/h 90 % 0.0 in /  0 mm
02:37 8.2 °F /  -13.2 °C 6.7 °F /  -14.1 °C 1021.2 in /  34577.8 hPa NNE 16.1 mph /  25.9 km/h 20.9 mph /  33.6 km/h 90 % 0.0 in /  0 mm
02:42 8.1 °F /  -13.3 °C 6.6 °F /  -14.1 °C 1021.2 in /  34577.8 hPa NNW 6.4 mph /  10.3 km/h 20.9 mph /  33.6 km/h 90 % 0.0 in /  0 mm
02:52 8.2 °F /  -13.2 °C 6.5 °F /  -14.2 °C 1021.2 in /  34577.8 hPa North 6.4 mph /  10.3 km/h 20.9 mph /  33.6 km/h 89 % 0.0 in /  0 mm
02:57 8.1 °F /  -13.3 °C 6.4 °F /  -14.2 °C 1021.2 in /  34577.8 hPa NE 11.3 mph /  18.2 km/h 27.4 mph /  44.1 km/h 89 % 0.0 in /  0 mm
03:02 8.0 °F /  -13.3 °C 6.3 °F /  -14.3 °C 1021.2 in /  34577.8 hPa North 11.3 mph /  18.2 km/h 27.4 mph /  44.1 km/h 89 % 0.0 in /  0 mm
03:12 7.9 °F /  -13.4 °C 6.4 °F /  -14.2 °C 1020.9 in /  34567.7 hPa NW 6.4 mph /  10.3 km/h 27.4 mph /  44.1 km/h 90 % 0.0 in /  0 mm
03:17 7.9 °F /  -13.4 °C 6.4 °F /  -14.2 °C 1020.9 in /  34567.7 hPa NE 4.8 mph /  7.7 km/h 24.1 mph /  38.8 km/h 90 % 0.0 in /  0 mm
03:22 7.9 °F /  -13.4 °C 6.4 °F /  -14.2 °C 1020.9 in /  34567.7 hPa NNE 16.1 mph /  25.9 km/h 24.1 mph /  38.8 km/h 90 % 0.0 in /  0 mm
03:32 7.7 °F /  -13.5 °C 6.2 °F /  -14.3 °C 1020.5 in /  34554.1 hPa Calm   17.7 mph /  28.5 km/h 90 % 0.0 in /  0 mm
03:42 7.7 °F /  -13.5 °C 6.2 °F /  -14.3 °C 1020.5 in /  34554.1 hPa NE 19.3 mph /  31.1 km/h 19.3 mph /  31.1 km/h 90 % 0.0 in /  0 mm
03:52 7.8 °F /  -13.4 °C 6.3 °F /  -14.3 °C 1020.5 in /  34554.1 hPa ENE 20.9 mph /  33.6 km/h 20.9 mph /  33.6 km/h 90 % 0.0 in /  0 mm
03:57 7.9 °F /  -13.4 °C 6.2 °F /  -14.3 °C 1020.2 in /  34544 hPa NE 24.1 mph /  38.8 km/h 29.0 mph /  46.7 km/h 89 % 0.0 in /  0 mm
04:02 7.9 °F /  -13.4 °C 6.2 °F /  -14.3 °C 1020.2 in /  34544 hPa NNE 19.3 mph /  31.1 km/h 29.0 mph /  46.7 km/h 89 % 0.0 in /  0 mm
04:12 7.9 °F /  -13.4 °C 6.2 °F /  -14.3 °C 1020.2 in /  34544 hPa North 11.3 mph /  18.2 km/h 29.0 mph /  46.7 km/h 89 % 0.0 in /  0 mm
04:17 7.9 °F /  -13.4 °C 6.2 °F /  -14.3 °C 1020.2 in /  34544 hPa North 6.4 mph /  10.3 km/h 30.6 mph /  49.2 km/h 89 % 0.0 in /  0 mm
04:22 7.8 °F /  -13.4 °C 6.1 °F /  -14.4 °C 1020.5 in /  34554.1 hPa NNE 16.1 mph /  25.9 km/h 30.6 mph /  49.2 km/h 89 % 0.0 in /  0 mm
04:27 7.8 °F /  -13.4 °C 6.1 °F /  -14.4 °C 1020.5 in /  34554.1 hPa NE 14.5 mph /  23.3 km/h 25.7 mph /  41.4 km/h 89 % 0.0 in /  0 mm
04:32 7.7 °F /  -13.5 °C 6.0 °F /  -14.4 °C 1020.5 in /  34554.1 hPa NNE 16.1 mph /  25.9 km/h 25.7 mph /  41.4 km/h 89 % 0.0 in /  0 mm
04:42 7.6 °F /  -13.6 °C 6.1 °F /  -14.4 °C 1020.2 in /  34544 hPa NE 9.7 mph /  15.6 km/h 27.4 mph /  44.1 km/h 90 % 0.0 in /  0 mm
04:47 7.5 °F /  -13.6 °C 6.0 °F /  -14.4 °C 1020.2 in /  34544 hPa NNE 8.0 mph /  12.9 km/h 27.4 mph /  44.1 km/h 90 % 0.0 in /  0 mm
04:52 7.4 °F /  -13.7 °C 5.9 °F /  -14.5 °C 1020.2 in /  34544 hPa NE 9.7 mph /  15.6 km/h 27.4 mph /  44.1 km/h 90 % 0.0 in /  0 mm
04:57 7.4 °F /  -13.7 °C 5.9 °F /  -14.5 °C 1020.2 in /  34544 hPa NE 8.0 mph /  12.9 km/h 27.4 mph /  44.1 km/h 90 % 0.0 in /  0 mm
05:02 7.3 °F /  -13.7 °C 5.8 °F /  -14.6 °C 1020.2 in /  34544 hPa ENE 16.1 mph /  25.9 km/h 24.1 mph /  38.8 km/h 90 % 0.0 in /  0 mm
05:12 7.3 °F /  -13.7 °C 5.9 °F /  -14.5 °C 1020.2 in /  34544 hPa NNE 11.3 mph /  18.2 km/h 16.1 mph /  25.9 km/h 91 % 0.0 in /  0 mm
05:17 7.3 °F /  -13.7 °C 5.8 °F /  -14.6 °C 1020.2 in /  34544 hPa NNE 20.9 mph /  33.6 km/h 20.9 mph /  33.6 km/h 90 % 0.0 in /  0 mm
05:22 7.3 °F /  -13.7 °C 5.8 °F /  -14.6 °C 1020.2 in /  34544 hPa NE 1.6 mph /  2.6 km/h 20.9 mph /  33.6 km/h 90 % 0.0 in /  0 mm
05:32 7.2 °F /  -13.8 °C 5.7 °F /  -14.6 °C 1019.9 in /  34533.8 hPa North 3.2 mph /  5.1 km/h 20.9 mph /  33.6 km/h 90 % 0.0 in /  0 mm
05:37 7.1 °F /  -13.8 °C 5.7 °F /  -14.6 °C 1019.9 in /  34533.8 hPa NNE 6.4 mph /  10.3 km/h 20.9 mph /  33.6 km/h 91 % 0.0 in /  0 mm
05:42 7.0 °F /  -13.9 °C 5.6 °F /  -14.7 °C 1019.9 in /  34533.8 hPa NE 9.7 mph /  15.6 km/h 17.7 mph /  28.5 km/h 91 % 0.0 in /  0 mm
05:47 6.9 °F /  -13.9 °C 5.5 °F /  -14.7 °C 1019.9 in /  34533.8 hPa Calm   17.7 mph /  28.5 km/h 91 % 0.0 in /  0 mm
05:52 6.9 °F /  -13.9 °C 5.5 °F /  -14.7 °C 1019.9 in /  34533.8 hPa NNE 3.2 mph /  5.1 km/h 17.7 mph /  28.5 km/h 91 % 0.0 in /  0 mm
06:02 6.9 °F /  -13.9 °C 5.5 °F /  -14.7 °C 1019.9 in /  34533.8 hPa NE 4.8 mph /  7.7 km/h 12.9 mph /  20.8 km/h 91 % 0.0 in /  0 mm
06:12 6.9 °F /  -13.9 °C 5.5 °F /  -14.7 °C 1019.5 in /  34520.3 hPa NNE 8.0 mph /  12.9 km/h 17.7 mph /  28.5 km/h 91 % 0.0 in /  0 mm
06:17 6.7 °F /  -14.1 °C 5.3 °F /  -14.8 °C 1019.9 in /  34533.8 hPa NNE 8.0 mph /  12.9 km/h 17.7 mph /  28.5 km/h 91 % 0.0 in /  0 mm
06:22 6.7 °F /  -14.1 °C 5.3 °F /  -14.8 °C 1019.9 in /  34533.8 hPa NNE 6.4 mph /  10.3 km/h 17.7 mph /  28.5 km/h 91 % 0.0 in /  0 mm
06:32 6.4 °F /  -14.2 °C 5.2 °F /  -14.9 °C 1019.5 in /  34520.3 hPa NE 3.2 mph /  5.1 km/h 17.7 mph /  28.5 km/h 92 % 0.0 in /  0 mm
06:42 6.6 °F /  -14.1 °C 5.4 °F /  -14.8 °C 1019.5 in /  34520.3 hPa NNE 11.3 mph /  18.2 km/h 14.5 mph /  23.3 km/h 92 % 0.0 in /  0 mm
06:47 6.7 °F /  -14.1 °C 5.5 °F /  -14.7 °C 1019.5 in /  34520.3 hPa NNE 1.6 mph /  2.6 km/h 14.5 mph /  23.3 km/h 92 % 0.0 in /  0 mm
06:52 6.7 °F /  -14.1 °C 5.3 °F /  -14.8 °C 1019.5 in /  34520.3 hPa NNE 8.0 mph /  12.9 km/h 19.3 mph /  31.1 km/h 91 % 0.0 in /  0 mm
07:02 6.6 °F /  -14.1 °C 5.2 °F /  -14.9 °C 1019.2 in /  34510.1 hPa NNE 16.1 mph /  25.9 km/h 19.3 mph /  31.1 km/h 91 % 0.0 in /  0 mm
07:12 6.7 °F /  -14.1 °C 5.3 °F /  -14.8 °C 1019.2 in /  34510.1 hPa ENE 4.8 mph /  7.7 km/h 22.5 mph /  36.2 km/h 91 % 0.0 in /  0 mm
07:17 6.8 °F /  -14 °C 5.4 °F /  -14.8 °C 1019.2 in /  34510.1 hPa NE 4.8 mph /  7.7 km/h 22.5 mph /  36.2 km/h 91 % 0.0 in /  0 mm
07:22 6.9 °F /  -13.9 °C 5.5 °F /  -14.7 °C 1019.2 in /  34510.1 hPa NNE 11.3 mph /  18.2 km/h 22.5 mph /  36.2 km/h 91 % 0.0 in /  0 mm
07:32 6.9 °F /  -13.9 °C 5.4 °F /  -14.8 °C 1018.8 in /  34496.6 hPa NNW 8.0 mph /  12.9 km/h 20.9 mph /  33.6 km/h 90 % 0.0 in /  0 mm
07:42 7.1 °F /  -13.8 °C 5.6 °F /  -14.7 °C 1018.8 in /  34496.6 hPa NE 22.5 mph /  36.2 km/h 29.0 mph /  46.7 km/h 90 % 0.0 in /  0 mm
07:47 7.1 °F /  -13.8 °C 5.6 °F /  -14.7 °C 1018.8 in /  34496.6 hPa NE 16.1 mph /  25.9 km/h 29.0 mph /  46.7 km/h 90 % 0.0 in /  0 mm
07:57 7.2 °F /  -13.8 °C 5.5 °F /  -14.7 °C 1018.8 in /  34496.6 hPa NNE 16.1 mph /  25.9 km/h 29.0 mph /  46.7 km/h 89 % 0.0 in /  0 mm
08:12 7.4 °F /  -13.7 °C 5.7 °F /  -14.6 °C 1018.8 in /  34496.6 hPa NE 19.3 mph /  31.1 km/h 29.0 mph /  46.7 km/h 89 % 0.0 in /  0 mm
08:17 7.5 °F /  -13.6 °C 5.8 °F /  -14.6 °C 1019.2 in /  34510.1 hPa NNE 16.1 mph /  25.9 km/h 29.0 mph /  46.7 km/h 89 % 0.0 in /  0 mm
08:22 7.6 °F /  -13.6 °C 5.9 °F /  -14.5 °C 1019.2 in /  34510.1 hPa NE 20.9 mph /  33.6 km/h 29.0 mph /  46.7 km/h 89 % 0.0 in /  0 mm
08:32 7.8 °F /  -13.4 °C 5.9 °F /  -14.5 °C 1019.2 in /  34510.1 hPa NNE 17.7 mph /  28.5 km/h 25.7 mph /  41.4 km/h 88 % 0.0 in /  0 mm
08:42 7.9 °F /  -13.4 °C 5.9 °F /  -14.5 °C 1019.2 in /  34510.1 hPa NE 20.9 mph /  33.6 km/h 27.4 mph /  44.1 km/h 87 % 0.0 in /  0 mm
08:47 8.0 °F /  -13.3 °C 6.0 °F /  -14.4 °C 1019.2 in /  34510.1 hPa North 14.5 mph /  23.3 km/h 27.4 mph /  44.1 km/h 87 % 0.0 in /  0 mm
08:52 8.2 °F /  -13.2 °C 6.2 °F /  -14.3 °C 1018.8 in /  34496.6 hPa NE 12.9 mph /  20.8 km/h 30.6 mph /  49.2 km/h 87 % 0.0 in /  0 mm
09:02 8.4 °F /  -13.1 °C 6.4 °F /  -14.2 °C 1018.8 in /  34496.6 hPa NNE 17.7 mph /  28.5 km/h 30.6 mph /  49.2 km/h 87 % 0.0 in /  0 mm
09:12 8.8 °F /  -12.9 °C 6.6 °F /  -14.1 °C 1018.8 in /  34496.6 hPa NNE 12.9 mph /  20.8 km/h 27.4 mph /  44.1 km/h 86 % 0.0 in /  0 mm
09:17 8.9 °F /  -12.8 °C 6.5 °F /  -14.2 °C 1018.8 in /  34496.6 hPa NE 9.7 mph /  15.6 km/h 27.4 mph /  44.1 km/h 85 % 0.0 in /  0 mm
09:22 9.1 °F /  -12.7 °C 6.7 °F /  -14.1 °C 1018.8 in /  34496.6 hPa ENE 11.3 mph /  18.2 km/h 29.0 mph /  46.7 km/h 85 % 0.0 in /  0 mm
09:32 9.2 °F /  -12.7 °C 6.6 °F /  -14.1 °C 1018.8 in /  34496.6 hPa NE 19.3 mph /  31.1 km/h 27.4 mph /  44.1 km/h 84 % 0.0 in /  0 mm
09:37 9.3 °F /  -12.6 °C 6.7 °F /  -14.1 °C 1018.8 in /  34496.6 hPa ENE 12.9 mph /  20.8 km/h 27.4 mph /  44.1 km/h 84 % 0.0 in /  0 mm
09:42 9.4 °F /  -12.6 °C 6.7 °F /  -14.1 °C 1018.5 in /  34486.4 hPa NE 8.0 mph /  12.9 km/h 29.0 mph /  46.7 km/h 83 % 0.0 in /  0 mm
09:52 9.6 °F /  -12.4 °C 6.9 °F /  -13.9 °C 1018.5 in /  34486.4 hPa East 16.1 mph /  25.9 km/h 29.0 mph /  46.7 km/h 83 % 0.0 in /  0 mm
09:57 9.8 °F /  -12.3 °C 7.1 °F /  -13.8 °C 1018.5 in /  34486.4 hPa NNE 22.5 mph /  36.2 km/h 29.0 mph /  46.7 km/h 83 % 0.0 in /  0 mm
10:02 9.8 °F /  -12.3 °C 6.9 °F /  -13.9 °C 1018.5 in /  34486.4 hPa NE 11.3 mph /  18.2 km/h 29.0 mph /  46.7 km/h 82 % 0.0 in /  0 mm
10:12 10.1 °F /  -12.2 °C 7.2 °F /  -13.8 °C 1018.5 in /  34486.4 hPa NE 24.1 mph /  38.8 km/h 32.2 mph /  51.8 km/h 82 % 0.0 in /  0 mm
10:22 10.2 °F /  -12.1 °C 7.3 °F /  -13.7 °C 1018.2 in /  34476.3 hPa NNE 24.1 mph /  38.8 km/h 27.4 mph /  44.1 km/h 82 % 0.0 in /  0 mm
10:27 10.3 °F /  -12.1 °C 7.4 °F /  -13.7 °C 1017.8 in /  34462.7 hPa NNE 20.9 mph /  33.6 km/h 27.4 mph /  44.1 km/h 82 % 0.0 in /  0 mm
10:32 10.3 °F /  -12.1 °C 7.2 °F /  -13.8 °C 1017.8 in /  34462.7 hPa NE 12.9 mph /  20.8 km/h 27.4 mph /  44.1 km/h 81 % 0.0 in /  0 mm
10:42 10.6 °F /  -11.9 °C 7.3 °F /  -13.7 °C 1017.8 in /  34462.7 hPa NE 14.5 mph /  23.3 km/h 30.6 mph /  49.2 km/h 80 % 0.0 in /  0 mm
10:47 10.8 °F /  -11.8 °C 7.5 °F /  -13.6 °C 1017.8 in /  34462.7 hPa NNE 8.0 mph /  12.9 km/h 30.6 mph /  49.2 km/h 80 % 0.0 in /  0 mm
10:52 11.1 °F /  -11.6 °C 8.0 °F /  -13.3 °C 1017.8 in /  34462.7 hPa NE 19.3 mph /  31.1 km/h 24.1 mph /  38.8 km/h 81 % 0.0 in /  0 mm
10:57 11.1 °F /  -11.6 °C 7.6 °F /  -13.6 °C 1017.8 in /  34462.7 hPa NE 19.3 mph /  31.1 km/h 24.1 mph /  38.8 km/h 79 % 0.0 in /  0 mm
11:02 11.1 °F /  -11.6 °C 7.6 °F /  -13.6 °C 1017.5 in /  34452.6 hPa North 30.6 mph /  49.2 km/h 30.6 mph /  49.2 km/h 79 % 0.0 in /  0 mm
11:12 11.6 °F /  -11.3 °C 8.1 °F /  -13.3 °C 1017.5 in /  34452.6 hPa NNE 19.3 mph /  31.1 km/h 30.6 mph /  49.2 km/h 79 % 0.0 in /  0 mm
11:17 11.6 °F /  -11.3 °C 7.9 °F /  -13.4 °C 1017.5 in /  34452.6 hPa NE 12.9 mph /  20.8 km/h 30.6 mph /  49.2 km/h 78 % 0.0 in /  0 mm
11:27 11.8 °F /  -11.2 °C 8.1 °F /  -13.3 °C 1017.5 in /  34452.6 hPa NE 11.3 mph /  18.2 km/h 27.4 mph /  44.1 km/h 78 % 0.0 in /  0 mm
11:32 11.9 °F /  -11.2 °C 8.0 °F /  -13.3 °C 1017.2 in /  34442.4 hPa NE 17.7 mph /  28.5 km/h 27.4 mph /  44.1 km/h 77 % 0.0 in /  0 mm
11:37 12.0 °F /  -11.1 °C 8.3 °F /  -13.2 °C 1017.2 in /  34442.4 hPa ENE 14.5 mph /  23.3 km/h 27.4 mph /  44.1 km/h 78 % 0.0 in /  0 mm
11:42 12.2 °F /  -11 °C 8.3 °F /  -13.2 °C 1017.2 in /  34442.4 hPa ENE 22.5 mph /  36.2 km/h 30.6 mph /  49.2 km/h 77 % 0.0 in /  0 mm
11:52 12.3 °F /  -10.9 °C 8.2 °F /  -13.2 °C 1017.2 in /  34442.4 hPa NE 27.4 mph /  44.1 km/h 35.4 mph /  57 km/h 76 % 0.0 in /  0 mm
11:57 12.5 °F /  -10.8 °C 8.4 °F /  -13.1 °C 1017.2 in /  34442.4 hPa NE 16.1 mph /  25.9 km/h 35.4 mph /  57 km/h 76 % 0.0 in /  0 mm
12:02 12.7 °F /  -10.7 °C 8.4 °F /  -13.1 °C 1017.5 in /  34452.6 hPa NE 16.1 mph /  25.9 km/h 32.2 mph /  51.8 km/h 75 % 0.0 in /  0 mm
12:12 12.9 °F /  -10.6 °C 8.4 °F /  -13.1 °C 1017.2 in /  34442.4 hPa NNE 16.1 mph /  25.9 km/h 30.6 mph /  49.2 km/h 74 % 0.0 in /  0 mm
12:17 13.0 °F /  -10.6 °C 8.3 °F /  -13.2 °C 1017.2 in /  34442.4 hPa ENE 19.3 mph /  31.1 km/h 30.6 mph /  49.2 km/h 73 % 0.0 in /  0 mm
12:22 13.1 °F /  -10.5 °C 8.6 °F /  -13 °C 1017.2 in /  34442.4 hPa NNE 11.3 mph /  18.2 km/h 29.0 mph /  46.7 km/h 74 % 0.0 in /  0 mm
12:32 13.4 °F /  -10.3 °C 8.9 °F /  -12.8 °C 1017.2 in /  34442.4 hPa NE 20.9 mph /  33.6 km/h 29.0 mph /  46.7 km/h 74 % 0.0 in /  0 mm
12:37 13.5 °F /  -10.3 °C 8.8 °F /  -12.9 °C 1016.8 in /  34428.8 hPa NNE 9.7 mph /  15.6 km/h 29.0 mph /  46.7 km/h 73 % 0.0 in /  0 mm
12:42 13.7 °F /  -10.2 °C 8.5 °F /  -13.1 °C 1016.8 in /  34428.8 hPa North 27.4 mph /  44.1 km/h 29.0 mph /  46.7 km/h 71 % 0.0 in /  0 mm
12:47 13.8 °F /  -10.1 °C 8.6 °F /  -13 °C 1016.8 in /  34428.8 hPa NE 20.9 mph /  33.6 km/h 29.0 mph /  46.7 km/h 71 % 0.0 in /  0 mm
12:52 14.1 °F /  -9.9 °C 9.1 °F /  -12.7 °C 1016.8 in /  34428.8 hPa NE 12.9 mph /  20.8 km/h 32.2 mph /  51.8 km/h 72 % 0.0 in /  0 mm
13:02 14.2 °F /  -9.9 °C 9.0 °F /  -12.8 °C 1016.5 in /  34418.7 hPa East 12.9 mph /  20.8 km/h 32.2 mph /  51.8 km/h 71 % 0.0 in /  0 mm
13:12 14.4 °F /  -9.8 °C 9.0 °F /  -12.8 °C 1016.5 in /  34418.7 hPa NE 12.9 mph /  20.8 km/h 29.0 mph /  46.7 km/h 70 % 0.0 in /  0 mm
13:17 14.5 °F /  -9.7 °C 9.1 °F /  -12.7 °C 1016.5 in /  34418.7 hPa NNE 14.5 mph /  23.3 km/h 27.4 mph /  44.1 km/h 70 % 0.0 in /  0 mm
13:22 14.5 °F /  -9.7 °C 8.4 °F /  -13.1 °C 1016.5 in /  34418.7 hPa NE 9.7 mph /  15.6 km/h 27.4 mph /  44.1 km/h 67 % 0.0 in /  0 mm
13:32 14.7 °F /  -9.6 °C 9.1 °F /  -12.7 °C 1016.5 in /  34418.7 hPa ENE 19.3 mph /  31.1 km/h 29.0 mph /  46.7 km/h 69 % 0.0 in /  0 mm
13:37 14.8 °F /  -9.6 °C 9.4 °F /  -12.6 °C 1016.8 in /  34428.8 hPa ENE 9.7 mph /  15.6 km/h 29.0 mph /  46.7 km/h 70 % 0.0 in /  0 mm
13:42 15.0 °F /  -9.4 °C 9.1 °F /  -12.7 °C 1016.5 in /  34418.7 hPa NE 24.1 mph /  38.8 km/h 24.1 mph /  38.8 km/h 68 % 0.0 in /  0 mm
13:47 15.0 °F /  -9.4 °C 9.1 °F /  -12.7 °C 1016.5 in /  34418.7 hPa NE 17.7 mph /  28.5 km/h 27.4 mph /  44.1 km/h 68 % 0.0 in /  0 mm
13:52 15.2 °F /  -9.3 °C 9.3 °F /  -12.6 °C 1016.5 in /  34418.7 hPa NE 12.9 mph /  20.8 km/h 27.4 mph /  44.1 km/h 68 % 0.0 in /  0 mm
14:02 15.3 °F /  -9.3 °C 9.2 °F /  -12.7 °C 1016.5 in /  34418.7 hPa NNE 17.7 mph /  28.5 km/h 24.1 mph /  38.8 km/h 67 % 0.0 in /  0 mm
14:17 15.4 °F /  -9.2 °C 9.5 °F /  -12.5 °C 1016.1 in /  34405.1 hPa ENE 14.5 mph /  23.3 km/h 27.4 mph /  44.1 km/h 68 % 0.0 in /  0 mm
14:22 15.6 °F /  -9.1 °C 9.5 °F /  -12.5 °C 1016.1 in /  34405.1 hPa NE 16.1 mph /  25.9 km/h 25.7 mph /  41.4 km/h 67 % 0.0 in /  0 mm
14:32 15.8 °F /  -9 °C 9.5 °F /  -12.5 °C 1016.1 in /  34405.1 hPa ENE 14.5 mph /  23.3 km/h 24.1 mph /  38.8 km/h 66 % 0.0 in /  0 mm
14:37 15.9 °F /  -8.9 °C 9.6 °F /  -12.4 °C 1016.1 in /  34405.1 hPa ENE 17.7 mph /  28.5 km/h 22.5 mph /  36.2 km/h 66 % 0.0 in /  0 mm
14:52 16.2 °F /  -8.8 °C 9.1 °F /  -12.7 °C 1016.1 in /  34405.1 hPa NE 8.0 mph /  12.9 km/h 29.0 mph /  46.7 km/h 63 % 0.0 in /  0 mm
14:57 16.2 °F /  -8.8 °C 9.4 °F /  -12.6 °C 1016.1 in /  34405.1 hPa ENE 9.7 mph /  15.6 km/h 20.9 mph /  33.6 km/h 64 % 0.0 in /  0 mm
15:02 16.4 °F /  -8.7 °C 9.8 °F /  -12.3 °C 1016.5 in /  34418.7 hPa ENE 9.7 mph /  15.6 km/h 20.9 mph /  33.6 km/h 65 % 0.0 in /  0 mm
15:12 16.6 °F /  -8.6 °C 10.0 °F /  -12.2 °C 1016.5 in /  34418.7 hPa ENE 4.8 mph /  7.7 km/h 19.3 mph /  31.1 km/h 65 % 0.0 in /  0 mm
15:17 16.5 °F /  -8.6 °C 9.7 °F /  -12.4 °C 1016.5 in /  34418.7 hPa SSE 4.8 mph /  7.7 km/h 19.3 mph /  31.1 km/h 64 % 0.0 in /  0 mm
15:22 16.6 °F /  -8.6 °C 9.5 °F /  -12.5 °C 1016.5 in /  34418.7 hPa NNE 1.6 mph /  2.6 km/h 17.7 mph /  28.5 km/h 63 % 0.0 in /  0 mm
15:32 16.8 °F /  -8.4 °C 9.7 °F /  -12.4 °C 1016.5 in /  34418.7 hPa ENE 3.2 mph /  5.1 km/h 17.7 mph /  28.5 km/h 63 % 0.0 in /  0 mm
15:37 16.8 °F /  -8.4 °C 9.7 °F /  -12.4 °C 1016.5 in /  34418.7 hPa East 1.6 mph /  2.6 km/h 8.0 mph /  12.9 km/h 63 % 0.0 in /  0 mm
15:42 16.9 °F /  -8.4 °C 10.3 °F /  -12.1 °C 1016.5 in /  34418.7 hPa ENE 3.2 mph /  5.1 km/h 6.4 mph /  10.3 km/h 65 % 0.0 in /  0 mm
15:47 16.8 °F /  -8.4 °C 9.7 °F /  -12.4 °C 1016.1 in /  34405.1 hPa ESE 3.2 mph /  5.1 km/h 8.0 mph /  12.9 km/h 63 % 0.0 in /  0 mm
15:52 16.7 °F /  -8.5 °C 9.6 °F /  -12.4 °C 1016.1 in /  34405.1 hPa East 1.6 mph /  2.6 km/h 8.0 mph /  12.9 km/h 63 % 0.0 in /  0 mm
15:57 16.7 °F /  -8.5 °C 9.6 °F /  -12.4 °C 1016.1 in /  34405.1 hPa East 1.6 mph /  2.6 km/h 8.0 mph /  12.9 km/h 63 % 0.0 in /  0 mm
16:02 16.9 °F /  -8.4 °C 9.8 °F /  -12.3 °C 1016.1 in /  34405.1 hPa Calm   8.0 mph /  12.9 km/h 63 % 0.0 in /  0 mm
16:12 17.0 °F /  -8.3 °C 9.9 °F /  -12.3 °C 1016.1 in /  34405.1 hPa East 1.6 mph /  2.6 km/h 4.8 mph /  7.7 km/h 63 % 0.0 in /  0 mm
16:17 16.9 °F /  -8.4 °C 10.0 °F /  -12.2 °C 1016.1 in /  34405.1 hPa NE 1.6 mph /  2.6 km/h 6.4 mph /  10.3 km/h 64 % 0.0 in /  0 mm
16:22 16.8 °F /  -8.4 °C 9.7 °F /  -12.4 °C 1016.1 in /  34405.1 hPa ESE 1.6 mph /  2.6 km/h 6.4 mph /  10.3 km/h 63 % 0.0 in /  0 mm
16:32 16.0 °F /  -8.9 °C 10.1 °F /  -12.2 °C 1016.5 in /  34418.7 hPa South 11.3 mph /  18.2 km/h 11.3 mph /  18.2 km/h 68 % 0.0 in /  0 mm
16:42 15.4 °F /  -9.2 °C 9.3 °F /  -12.6 °C 1016.5 in /  34418.7 hPa SSW 16.1 mph /  25.9 km/h 29.0 mph /  46.7 km/h 67 % 0.0 in /  0 mm
16:47 15.2 °F /  -9.3 °C 9.1 °F /  -12.7 °C 1016.5 in /  34418.7 hPa South 9.7 mph /  15.6 km/h 22.5 mph /  36.2 km/h 67 % 0.0 in /  0 mm
16:52 15.0 °F /  -9.4 °C 8.7 °F /  -12.9 °C 1016.5 in /  34418.7 hPa SSE 8.0 mph /  12.9 km/h 22.5 mph /  36.2 km/h 66 % 0.0 in /  0 mm
16:57 14.9 °F /  -9.5 °C 8.6 °F /  -13 °C 1016.5 in /  34418.7 hPa SSW 3.2 mph /  5.1 km/h 20.9 mph /  33.6 km/h 66 % 0.0 in /  0 mm
17:02 14.8 °F /  -9.6 °C 8.7 °F /  -12.9 °C 1016.5 in /  34418.7 hPa South 3.2 mph /  5.1 km/h 20.9 mph /  33.6 km/h 67 % 0.0 in /  0 mm
17:12 14.7 °F /  -9.6 °C 8.9 °F /  -12.8 °C 1016.5 in /  34418.7 hPa SSE 4.8 mph /  7.7 km/h 16.1 mph /  25.9 km/h 68 % 0.0 in /  0 mm
17:17 14.6 °F /  -9.7 °C 8.8 °F /  -12.9 °C 1016.1 in /  34405.1 hPa SSW 3.2 mph /  5.1 km/h 12.9 mph /  20.8 km/h 68 % 0.0 in /  0 mm
17:22 14.6 °F /  -9.7 °C 8.3 °F /  -13.2 °C 1016.1 in /  34405.1 hPa SSE 3.2 mph /  5.1 km/h 8.0 mph /  12.9 km/h 66 % 0.0 in /  0 mm
17:32 14.5 °F /  -9.7 °C 8.2 °F /  -13.2 °C 1016.1 in /  34405.1 hPa South 1.6 mph /  2.6 km/h 8.0 mph /  12.9 km/h 66 % 0.0 in /  0 mm
17:37 14.4 °F /  -9.8 °C 8.3 °F /  -13.2 °C 1016.1 in /  34405.1 hPa WSW 1.6 mph /  2.6 km/h 8.0 mph /  12.9 km/h 67 % 0.0 in /  0 mm
17:42 14.4 °F /  -9.8 °C 7.9 °F /  -13.4 °C 1016.1 in /  34405.1 hPa Calm   4.8 mph /  7.7 km/h 65 % 0.0 in /  0 mm
17:47 14.4 °F /  -9.8 °C 7.9 °F /  -13.4 °C 1016.1 in /  34405.1 hPa Calm   3.2 mph /  5.1 km/h 65 % 0.0 in /  0 mm
17:52 14.4 °F /  -9.8 °C 7.9 °F /  -13.4 °C 1016.1 in /  34405.1 hPa Calm   3.2 mph /  5.1 km/h 65 % 0.0 in /  0 mm
17:57 14.4 °F /  -9.8 °C 8.1 °F /  -13.3 °C 1016.1 in /  34405.1 hPa Calm   3.2 mph /  5.1 km/h 66 % 0.0 in /  0 mm
18:02 14.4 °F /  -9.8 °C 8.1 °F /  -13.3 °C 1016.1 in /  34405.1 hPa Calm   1.6 mph /  2.6 km/h 66 % 0.0 in /  0 mm
18:12 14.4 °F /  -9.8 °C 8.3 °F /  -13.2 °C 1016.1 in /  34405.1 hPa Calm     67 % 0.0 in /  0 mm
18:17 14.3 °F /  -9.8 °C 8.5 °F /  -13.1 °C 1016.1 in /  34405.1 hPa Calm     68 % 0.0 in /  0 mm
18:22 14.2 °F /  -9.9 °C 8.6 °F /  -13 °C 1016.5 in /  34418.7 hPa Calm     69 % 0.0 in /  0 mm
18:32 14.1 °F /  -9.9 °C 8.3 °F /  -13.2 °C 1016.5 in /  34418.7 hPa Calm     68 % 0.0 in /  0 mm
18:42 14.0 °F /  -10 °C 8.6 °F /  -13 °C 1016.5 in /  34418.7 hPa Calm     70 % 0.0 in /  0 mm
18:52 13.8 °F /  -10.1 °C 8.8 °F /  -12.9 °C 1016.5 in /  34418.7 hPa East 3.2 mph /  5.1 km/h 6.4 mph /  10.3 km/h 72 % 0.0 in /  0 mm
18:57 13.8 °F /  -10.1 °C 8.8 °F /  -12.9 °C 1016.5 in /  34418.7 hPa ESE 3.2 mph /  5.1 km/h 6.4 mph /  10.3 km/h 72 % 0.0 in /  0 mm
19:02 13.7 °F /  -10.2 °C 8.7 °F /  -12.9 °C 1016.5 in /  34418.7 hPa East 3.2 mph /  5.1 km/h 8.0 mph /  12.9 km/h 72 % 0.0 in /  0 mm
19:07 13.6 °F /  -10.2 °C 8.6 °F /  -13 °C 1016.8 in /  34428.8 hPa SE 3.2 mph /  5.1 km/h 8.0 mph /  12.9 km/h 72 % 0.0 in /  0 mm
19:12 13.6 °F /  -10.2 °C 8.2 °F /  -13.2 °C 1016.8 in /  34428.8 hPa Calm   8.0 mph /  12.9 km/h 70 % 0.0 in /  0 mm
19:17 13.5 °F /  -10.3 °C 8.3 °F /  -13.2 °C 1016.8 in /  34428.8 hPa East 3.2 mph /  5.1 km/h 6.4 mph /  10.3 km/h 71 % 0.0 in /  0 mm
19:22 13.5 °F /  -10.3 °C 8.1 °F /  -13.3 °C 1016.8 in /  34428.8 hPa East 3.2 mph /  5.1 km/h 6.4 mph /  10.3 km/h 70 % 0.0 in /  0 mm
19:32 13.4 °F /  -10.3 °C 8.0 °F /  -13.3 °C 1017.2 in /  34442.4 hPa Calm   4.8 mph /  7.7 km/h 70 % 0.0 in /  0 mm
19:42 13.2 °F /  -10.4 °C 8.1 °F /  -13.3 °C 1017.2 in /  34442.4 hPa Calm   4.8 mph /  7.7 km/h 71 % 0.0 in /  0 mm
19:47 13.2 °F /  -10.4 °C 8.3 °F /  -13.2 °C 1017.2 in /  34442.4 hPa ESE 1.6 mph /  2.6 km/h 4.8 mph /  7.7 km/h 72 % 0.0 in /  0 mm
19:52 13.1 °F /  -10.5 °C 8.2 °F /  -13.2 °C 1017.2 in /  34442.4 hPa Calm   4.8 mph /  7.7 km/h 72 % 0.0 in /  0 mm
19:57 13.1 °F /  -10.5 °C 7.8 °F /  -13.4 °C 1017.2 in /  34442.4 hPa ENE 3.2 mph /  5.1 km/h 4.8 mph /  7.7 km/h 70 % 0.0 in /  0 mm
20:02 13.2 °F /  -10.4 °C 7.4 °F /  -13.7 °C 1017.2 in /  34442.4 hPa Calm   4.8 mph /  7.7 km/h 68 % 0.0 in /  0 mm
20:12 13.2 °F /  -10.4 °C 7.2 °F /  -13.8 °C 1016.8 in /  34428.8 hPa Calm   6.4 mph /  10.3 km/h 67 % 0.0 in /  0 mm
20:22 13.3 °F /  -10.4 °C 7.1 °F /  -13.8 °C 1017.2 in /  34442.4 hPa East 1.6 mph /  2.6 km/h 3.2 mph /  5.1 km/h 66 % 0.0 in /  0 mm
20:27 13.3 °F /  -10.4 °C 6.9 °F /  -13.9 °C 1017.2 in /  34442.4 hPa East 3.2 mph /  5.1 km/h 3.2 mph /  5.1 km/h 65 % 0.0 in /  0 mm
20:32 13.2 °F /  -10.4 °C 7.0 °F /  -13.9 °C 1017.2 in /  34442.4 hPa Calm   3.2 mph /  5.1 km/h 66 % 0.0 in /  0 mm
20:37 13.1 °F /  -10.5 °C 6.9 °F /  -13.9 °C 1017.2 in /  34442.4 hPa Calm   4.8 mph /  7.7 km/h 66 % 0.0 in /  0 mm
20:42 13.0 °F /  -10.6 °C 7.0 °F /  -13.9 °C 1017.2 in /  34442.4 hPa Calm   4.8 mph /  7.7 km/h 67 % 0.0 in /  0 mm
20:47 12.9 °F /  -10.6 °C 7.1 °F /  -13.8 °C 1017.2 in /  34442.4 hPa Calm   3.2 mph /  5.1 km/h 68 % 0.0 in /  0 mm
20:52 12.8 °F /  -10.7 °C 7.3 °F /  -13.7 °C 1017.2 in /  34442.4 hPa Calm   3.2 mph /  5.1 km/h 69 % 0.0 in /  0 mm
20:57 12.6 °F /  -10.8 °C 7.5 °F /  -13.6 °C 1017.2 in /  34442.4 hPa Calm   1.6 mph /  2.6 km/h 71 % 0.0 in /  0 mm
21:02 12.6 °F /  -10.8 °C 7.1 °F /  -13.8 °C 1017.2 in /  34442.4 hPa Calm   1.6 mph /  2.6 km/h 69 % 0.0 in /  0 mm
21:12 12.5 °F /  -10.8 °C 7.0 °F /  -13.9 °C 1017.2 in /  34442.4 hPa SSE 1.6 mph /  2.6 km/h 3.2 mph /  5.1 km/h 69 % 0.0 in /  0 mm
21:17 12.4 °F /  -10.9 °C 7.1 °F /  -13.8 °C 1017.2 in /  34442.4 hPa Calm   3.2 mph /  5.1 km/h 70 % 0.0 in /  0 mm
21:22 12.3 °F /  -10.9 °C 7.4 °F /  -13.7 °C 1017.2 in /  34442.4 hPa Calm   1.6 mph /  2.6 km/h 72 % 0.0 in /  0 mm
21:27 12.2 °F /  -11 °C 7.1 °F /  -13.8 °C 1017.2 in /  34442.4 hPa Calm   1.6 mph /  2.6 km/h 71 % 0.0 in /  0 mm
21:32 12.2 °F /  -11 °C 7.1 °F /  -13.8 °C 1017.5 in /  34452.6 hPa East 1.6 mph /  2.6 km/h 1.6 mph /  2.6 km/h 71 % 0.0 in /  0 mm
21:37 12.2 °F /  -11 °C 6.9 °F /  -13.9 °C 1017.5 in /  34452.6 hPa ENE 1.6 mph /  2.6 km/h 3.2 mph /  5.1 km/h 70 % 0.0 in /  0 mm
21:42 12.2 °F /  -11 °C 6.7 °F /  -14.1 °C 1017.5 in /  34452.6 hPa Calm   3.2 mph /  5.1 km/h 69 % 0.0 in /  0 mm
21:47 12.4 °F /  -10.9 °C 6.9 °F /  -13.9 °C 1017.5 in /  34452.6 hPa SE 1.6 mph /  2.6 km/h 3.2 mph /  5.1 km/h 69 % 0.0 in /  0 mm
21:52 12.3 °F /  -10.9 °C 6.6 °F /  -14.1 °C 1017.2 in /  34442.4 hPa SE 3.2 mph /  5.1 km/h 4.8 mph /  7.7 km/h 68 % 0.0 in /  0 mm
21:57 12.3 °F /  -10.9 °C 6.8 °F /  -14 °C 1017.2 in /  34442.4 hPa SSE 1.6 mph /  2.6 km/h 4.8 mph /  7.7 km/h 69 % 0.0 in /  0 mm
22:02 12.2 °F /  -11 °C 7.1 °F /  -13.8 °C 1017.2 in /  34442.4 hPa South 3.2 mph /  5.1 km/h 4.8 mph /  7.7 km/h 71 % 0.0 in /  0 mm
22:12 12.1 °F /  -11.1 °C 7.4 °F /  -13.7 °C 1017.5 in /  34452.6 hPa Calm   3.2 mph /  5.1 km/h 73 % 0.0 in /  0 mm
22:17 11.9 °F /  -11.2 °C 7.4 °F /  -13.7 °C 1017.5 in /  34452.6 hPa Calm   3.2 mph /  5.1 km/h 74 % 0.0 in /  0 mm
22:22 11.8 °F /  -11.2 °C 7.3 °F /  -13.7 °C 1017.2 in /  34442.4 hPa Calm   3.2 mph /  5.1 km/h 74 % 0.0 in /  0 mm
22:32 11.7 °F /  -11.3 °C 7.4 °F /  -13.7 °C 1017.2 in /  34442.4 hPa Calm   1.6 mph /  2.6 km/h 75 % 0.0 in /  0 mm
22:37 11.6 °F /  -11.3 °C 7.3 °F /  -13.7 °C 1017.2 in /  34442.4 hPa Calm   1.6 mph /  2.6 km/h 75 % 0.0 in /  0 mm
22:42 11.5 °F /  -11.4 °C 7.2 °F /  -13.8 °C 1017.2 in /  34442.4 hPa Calm   1.6 mph /  2.6 km/h 75 % 0.0 in /  0 mm
22:52 11.1 °F /  -11.6 °C 7.2 °F /  -13.8 °C 1017.5 in /  34452.6 hPa ENE 1.6 mph /  2.6 km/h 1.6 mph /  2.6 km/h 77 % 0.0 in /  0 mm
22:57 10.9 °F /  -11.7 °C 7.4 °F /  -13.7 °C 1017.5 in /  34452.6 hPa Calm   3.2 mph /  5.1 km/h 79 % 0.0 in /  0 mm
23:02 10.9 °F /  -11.7 °C 7.4 °F /  -13.7 °C 1017.5 in /  34452.6 hPa Calm   3.2 mph /  5.1 km/h 79 % 0.0 in /  0 mm
23:12 10.9 °F /  -11.7 °C 7.4 °F /  -13.7 °C 1017.5 in /  34452.6 hPa Calm   3.2 mph /  5.1 km/h 79 % 0.0 in /  0 mm
23:17 10.9 °F /  -11.7 °C 7.4 °F /  -13.7 °C 1017.5 in /  34452.6 hPa Calm   1.6 mph /  2.6 km/h 79 % 0.0 in /  0 mm
23:22 10.8 °F /  -11.8 °C 7.3 °F /  -13.7 °C 1017.8 in /  34462.7 hPa Calm   1.6 mph /  2.6 km/h 79 % 0.0 in /  0 mm
23:27 10.6 °F /  -11.9 °C 7.3 °F /  -13.7 °C 1017.5 in /  34452.6 hPa Calm   1.6 mph /  2.6 km/h 80 % 0.0 in /  0 mm
23:32 10.5 °F /  -11.9 °C 7.4 °F /  -13.7 °C 1017.5 in /  34452.6 hPa Calm   1.6 mph /  2.6 km/h 81 % 0.0 in /  0 mm
23:37 10.4 °F /  -12 °C 7.3 °F /  -13.7 °C 1017.5 in /  34452.6 hPa Calm     81 % 0.0 in /  0 mm
23:42 10.3 °F /  -12.1 °C 7.4 °F /  -13.7 °C 1017.8 in /  34462.7 hPa Calm     82 % 0.0 in /  0 mm
23:52 10.3 °F /  -12.1 °C 7.4 °F /  -13.7 °C 1017.8 in /  34462.7 hPa Calm   1.6 mph /  2.6 km/h 82 % 0.0 in /  0 mm
23:57 10.3 °F /  -12.1 °C 7.4 °F /  -13.7 °C 1017.8 in /  34462.7 hPa Calm   1.6 mph /  2.6 km/h 82 % 0.0 in /  0 mm
Meteo18
Compliments of Weather Underground - 4 mb

Script developed by  Jim McMurry - jmcmurry@mwt.net Adapted for the template by  Wim van der Kuil - Leuven-Template.eu

You find our weather info also at:

European Weather Network

Weather Underground

Equipment we use:

Weather-station
Davis Vue

Weather-program
Meteobridge

Weather-server
Raspberry PI 2 B+

Provider
1 and 1

Davis Vue

Meteobridge

Raspberry PI 2 B+

1 and 1